Time;durP1;ratioP1;P1;durP2;ratioP2;P2;SDS_P1;SDS_P2;PMS_P1;PMS_P2;Temp;Humidity;BMP_temperature;BMP_pressure;BME280_temperature;BME280_humidity;BME280_pressure;Samples;Min_cycle;Max_cycle;Signal;HPM_P1;HPM_P2
2023/08/22 00:00:58;;;;;;;14.45;10.10;;;;;;;21.09;100.00;94399.22;5035260;28;20063;-65
2023/08/22 00:03:24;;;;;;;14.85;10.70;;;;;;;21.02;100.00;94396.75;5030497;28;20111;-65
2023/08/22 00:05:51;;;;;;;14.45;9.93;;;;;;;21.06;100.00;94397.34;5047035;28;20037;-65
2023/08/22 00:08:18;;;;;;;13.43;9.95;;;;;;;21.11;100.00;94393.16;5048807;28;20375;-65
2023/08/22 00:10:46;;;;;;;14.60;10.60;;;;;;;21.12;100.00;94392.66;5046727;28;20091;-65
2023/08/22 00:13:12;;;;;;;13.63;10.38;;;;;;;21.13;100.00;94387.88;5038324;28;20041;-64
2023/08/22 00:15:39;;;;;;;16.00;10.27;;;;;;;21.11;100.00;94387.59;5046247;28;20049;-65
2023/08/22 00:18:07;;;;;;;13.18;9.25;;;;;;;21.10;100.00;94389.56;5043911;28;20130;-65
2023/08/22 00:20:35;;;;;;;13.60;9.32;;;;;;;21.09;100.00;94384.50;5048720;28;20041;-65
2023/08/22 00:23:03;;;;;;;13.50;9.43;;;;;;;21.09;100.00;94392.88;5041993;28;20084;-65
2023/08/22 00:25:30;;;;;;;29.83;19.10;;;;;;;20.99;100.00;94382.97;5043943;28;20071;-65
2023/08/22 00:27:57;;;;;;;22.70;16.70;;;;;;;20.94;100.00;94382.38;5048328;28;20041;-65
2023/08/22 00:30:24;;;;;;;19.00;13.73;;;;;;;20.92;100.00;94386.88;5048490;28;20324;-65
2023/08/22 00:32:51;;;;;;;14.27;10.38;;;;;;;20.73;100.00;94386.97;5048508;28;20041;-65
2023/08/22 00:35:17;;;;;;;13.40;9.90;;;;;;;20.62;100.00;94383.88;5048289;28;20040;-65
2023/08/22 00:37:44;;;;;;;13.98;9.85;;;;;;;20.67;100.00;94385.28;5044654;28;20045;-65
2023/08/22 00:40:11;;;;;;;14.32;9.75;;;;;;;20.69;100.00;94382.81;5028515;28;20044;-65
2023/08/22 00:42:38;;;;;;;13.90;9.90;;;;;;;20.71;100.00;94381.09;5029712;28;20414;-65
2023/08/22 00:45:05;;;;;;;13.70;9.50;;;;;;;20.72;100.00;94379.81;5048155;28;20478;-65
2023/08/22 00:47:32;;;;;;;14.33;9.97;;;;;;;20.73;100.00;94383.41;5035592;28;20052;-65
2023/08/22 00:49:59;;;;;;;14.77;10.07;;;;;;;20.69;100.00;94377.22;5027993;28;20048;-64
2023/08/22 00:52:26;;;;;;;14.30;10.00;;;;;;;20.63;100.00;94374.28;5028739;28;20386;-65
2023/08/22 00:54:52;;;;;;;13.18;9.90;;;;;;;20.58;100.00;94382.50;5033907;28;20049;-65
2023/08/22 00:57:20;;;;;;;12.32;9.55;;;;;;;20.60;100.00;94377.25;5048056;28;20040;-65
2023/08/22 00:59:46;;;;;;;15.30;9.90;;;;;;;20.58;100.00;94380.47;5043658;28;20414;-65
2023/08/22 01:02:14;;;;;;;14.80;9.70;;;;;;;20.56;100.00;94385.75;5029433;28;20049;-65
2023/08/22 01:04:41;;;;;;;14.05;10.15;;;;;;;20.48;100.00;94382.53;5036211;28;20098;-64
2023/08/22 01:07:23;;;;;;;14.30;10.23;;;;;;;20.47;100.00;94374.63;5037341;28;20122;-65
2023/08/22 01:10:00;;;;;;;15.85;10.15;;;;;;;20.48;100.00;94371.38;5047175;28;20521;-65
2023/08/22 01:12:47;;;;;;;14.57;10.03;;;;;;;20.49;100.00;94369.34;5050883;28;20163;-64
2023/08/22 01:15:26;;;;;;;15.77;9.77;;;;;;;20.47;100.00;94364.25;5060928;28;20055;-65
2023/08/22 01:17:56;;;;;;;14.38;9.90;;;;;;;20.47;100.00;94363.47;5047187;28;20037;-65
2023/08/22 01:20:27;;;;;;;12.10;9.75;;;;;;;20.43;100.00;94360.09;5066836;28;20832;-64
2023/08/22 01:22:55;;;;;;;17.02;10.00;;;;;;;20.43;100.00;94362.88;5068058;28;20386;-65
2023/08/22 01:25:23;;;;;;;13.33;9.20;;;;;;;20.40;100.00;94356.19;5058945;28;20717;-65
2023/08/22 01:27:50;;;;;;;13.15;9.40;;;;;;;20.40;100.00;94361.78;5038825;28;20485;-65
2023/08/22 01:30:41;;;;;;;16.83;9.90;;;;;;;20.39;100.00;94359.47;5047361;28;20041;-65
2023/08/22 01:33:14;;;;;;;12.18;9.55;;;;;;;20.27;100.00;94358.44;5036485;28;20033;-64
2023/08/22 01:35:45;;;;;;;13.63;10.35;;;;;;;20.01;100.00;94358.00;5062545;28;20047;-65
2023/08/22 01:38:13;;;;;;;13.23;10.00;;;;;;;19.99;100.00;94358.47;5067124;28;20390;-65
2023/08/22 01:40:41;;;;;;;12.80;10.20;;;;;;;20.02;100.00;94360.34;5070775;28;20118;-65
2023/08/22 01:43:08;;;;;;;15.88;10.70;;;;;;;20.05;100.00;94358.63;5071272;28;20040;-65
2023/08/22 01:45:34;;;;;;;14.07;9.82;;;;;;;20.10;100.00;94367.13;5071692;28;20051;-65
2023/08/22 01:48:01;;;;;;;16.55;9.88;;;;;;;20.13;100.00;94357.06;5070923;28;20044;-65
2023/08/22 01:50:28;;;;;;;14.17;9.70;;;;;;;20.13;100.00;94354.28;5071668;28;20044;-65
2023/08/22 01:52:56;;;;;;;16.65;9.70;;;;;;;20.11;100.00;94360.31;5071316;28;20056;-65
2023/08/22 01:55:23;;;;;;;13.93;9.35;;;;;;;20.10;100.00;94358.78;5062014;28;20751;-64
2023/08/22 01:57:50;;;;;;;14.50;10.63;;;;;;;20.10;100.00;94363.53;5067454;28;20052;-65
2023/08/22 02:00:17;;;;;;;14.55;10.60;;;;;;;20.10;100.00;94361.56;5067065;28;20075;-65
2023/08/22 02:02:44;;;;;;;15.40;10.80;;;;;;;20.09;100.00;94359.22;5038149;28;20046;-65
2023/08/22 02:05:11;;;;;;;14.77;10.45;;;;;;;19.95;100.00;94355.84;5049027;28;20051;-65
2023/08/22 02:07:38;;;;;;;14.60;10.60;;;;;;;19.81;100.00;94355.69;5070146;28;20044;-64
2023/08/22 02:10:06;;;;;;;14.13;9.98;;;;;;;19.90;100.00;94352.91;5071112;28;20045;-65
2023/08/22 02:12:32;;;;;;;13.43;10.30;;;;;;;19.92;100.00;94356.78;5071424;28;20490;-65
2023/08/22 02:14:59;;;;;;;14.47;10.43;;;;;;;19.91;100.00;94348.88;5070704;28;20494;-65
2023/08/22 02:17:26;;;;;;;15.48;10.00;;;;;;;19.93;100.00;94355.53;5071070;28;20740;-65
2023/08/22 02:19:53;;;;;;;15.73;10.00;;;;;;;19.85;100.00;94347.97;5070792;28;20470;-64
2023/08/22 02:22:19;;;;;;;14.82;10.10;;;;;;;19.83;100.00;94347.66;5070399;28;20048;-65
2023/08/22 02:24:46;;;;;;;13.38;10.18;;;;;;;19.85;100.00;94345.94;5071042;28;20048;-65
2023/08/22 02:27:13;;;;;;;15.47;10.47;;;;;;;19.85;100.00;94339.59;5070665;28;20048;-65
2023/08/22 02:29:40;;;;;;;15.43;10.35;;;;;;;19.87;100.00;94345.50;5071128;28;20036;-65
2023/08/22 02:32:06;;;;;;;13.68;10.35;;;;;;;19.88;100.00;94341.44;5069916;28;20059;-65
2023/08/22 02:34:33;;;;;;;13.90;9.98;;;;;;;19.88;100.00;94339.47;5070665;28;20079;-65
2023/08/22 02:37:00;;;;;;;13.00;9.70;;;;;;;19.88;100.00;94344.22;5070541;28;20059;-65
2023/08/22 02:39:27;;;;;;;13.23;9.73;;;;;;;19.90;100.00;94339.75;5070747;28;20036;-65
2023/08/22 02:41:54;;;;;;;15.05;10.30;;;;;;;19.90;100.00;94338.97;5070869;28;20041;-65
2023/08/22 02:44:20;;;;;;;13.45;10.13;;;;;;;19.89;100.00;94341.00;5070379;28;20053;-65
2023/08/22 02:46:47;;;;;;;13.30;9.80;;;;;;;19.88;100.00;94336.66;5069208;28;20042;-65
2023/08/22 02:49:14;;;;;;;14.55;10.10;;;;;;;19.89;100.00;94335.41;5069944;28;20063;-64
2023/08/22 02:51:40;;;;;;;13.67;9.57;;;;;;;19.89;100.00;94341.00;5069062;28;20056;-65
2023/08/22 02:54:07;;;;;;;14.50;9.68;;;;;;;19.87;100.00;94337.13;5069967;28;20044;-65
2023/08/22 02:56:34;;;;;;;16.52;9.85;;;;;;;19.84;100.00;94335.25;5070134;28;20067;-64
2023/08/22 02:59:01;;;;;;;15.20;10.05;;;;;;;19.86;100.00;94338.34;5068677;28;20078;-65
2023/08/22 03:01:27;;;;;;;14.02;10.00;;;;;;;19.87;100.00;94337.13;5059486;28;20056;-65
2023/08/22 03:03:55;;;;;;;15.87;10.77;;;;;;;19.88;100.00;94338.66;5032238;28;20050;-65
2023/08/22 03:06:22;;;;;;;18.65;12.27;;;;;;;19.85;100.00;94328.47;5048332;28;20055;-65
2023/08/22 03:08:49;;;;;;;14.32;10.48;;;;;;;19.79;100.00;94331.09;5050216;28;20053;-65
2023/08/22 03:11:16;;;;;;;15.10;10.23;;;;;;;19.78;100.00;94337.13;5043211;28;22784;-65
2023/08/22 03:13:43;;;;;;;14.02;10.23;;;;;;;19.75;100.00;94324.91;5051561;28;20057;-65
2023/08/22 03:16:09;;;;;;;13.33;9.90;;;;;;;19.76;100.00;94332.03;5049502;28;20047;-65
2023/08/22 03:18:36;;;;;;;14.73;10.18;;;;;;;19.69;100.00;94343.44;5045064;28;20478;-65
2023/08/22 03:21:03;;;;;;;13.82;10.75;;;;;;;19.64;100.00;94338.50;5068176;28;20054;-65
2023/08/22 03:23:30;;;;;;;14.48;10.80;;;;;;;19.66;100.00;94336.00;5069809;28;20044;-65
2023/08/22 03:26:02;;;;;;;15.15;10.82;;;;;;;19.63;100.00;94343.28;5068041;28;20040;-65
2023/08/22 03:28:31;;;;;;;15.57;10.93;;;;;;;19.63;100.00;94339.75;5070002;28;20039;-65
2023/08/22 03:31:03;;;;;;;15.32;10.30;;;;;;;19.45;100.00;94338.50;5069077;28;20132;-65
2023/08/22 03:33:31;;;;;;;18.83;10.93;;;;;;;19.21;100.00;94343.88;5069926;28;20263;-65
2023/08/22 03:35:58;;;;;;;16.23;10.45;;;;;;;19.23;100.00;94346.22;5069128;28;20052;-64
2023/08/22 03:38:25;;;;;;;16.00;10.15;;;;;;;19.36;100.00;94341.28;5069075;28;20040;-65
2023/08/22 03:40:53;;;;;;;13.40;10.20;;;;;;;19.42;100.00;94336.66;5069660;28;20045;-65
2023/08/22 03:43:20;;;;;;;15.73;10.48;;;;;;;19.43;100.00;94340.19;5068871;28;20297;-65
2023/08/22 03:45:47;;;;;;;13.52;10.15;;;;;;;19.43;100.00;94337.41;5069533;28;20059;-65
2023/08/22 03:48:14;;;;;;;15.50;10.80;;;;;;;19.42;100.00;94338.63;5068388;28;20047;-66
2023/08/22 03:50:42;;;;;;;13.63;10.80;;;;;;;19.39;100.00;94339.59;5069713;28;20101;-65
2023/08/22 03:53:11;;;;;;;15.57;10.30;;;;;;;19.38;100.00;94336.03;5068615;28;20048;-65
2023/08/22 03:55:39;;;;;;;17.65;10.68;;;;;;;19.16;100.00;94342.50;5060106;28;20049;-65
2023/08/22 03:58:07;;;;;;;15.00;10.57;;;;;;;19.21;100.00;94343.88;5065211;28;20047;-64
2023/08/22 04:00:33;;;;;;;13.23;10.27;;;;;;;19.17;100.00;94340.47;5065653;28;20045;-65
2023/08/22 04:03:01;;;;;;;12.63;10.30;;;;;;;19.13;100.00;94356.53;5046254;28;20055;-65
2023/08/22 04:05:27;;;;;;;14.50;10.33;;;;;;;19.03;100.00;94352.97;5043253;28;20045;-65
2023/08/22 04:07:54;;;;;;;14.98;10.98;;;;;;;18.99;100.00;94348.78;5052157;28;20044;-65
2023/08/22 04:10:21;;;;;;;16.20;10.85;;;;;;;19.05;100.00;94352.50;5066948;28;20071;-65
2023/08/22 04:12:48;;;;;;;16.00;10.73;;;;;;;19.07;100.00;94352.81;5069094;28;20490;-65
2023/08/22 04:15:15;;;;;;;17.40;10.48;;;;;;;19.11;100.00;94353.44;5068216;28;20044;-65
2023/08/22 04:17:42;;;;;;;14.03;10.70;;;;;;;19.10;100.00;94355.47;5068506;28;20041;-65
2023/08/22 04:20:11;;;;;;;14.10;10.73;;;;;;;19.12;100.00;94358.56;5068079;28;20050;-65
2023/08/22 04:22:41;;;;;;;13.75;10.00;;;;;;;19.12;100.00;94353.00;5068521;28;20105;-65
2023/08/22 04:25:11;;;;;;;14.70;10.32;;;;;;;19.12;100.00;94357.78;5068300;28;20048;-65
2023/08/22 04:27:39;;;;;;;13.05;9.98;;;;;;;19.13;100.00;94357.31;5065967;28;20061;-65
2023/08/22 04:30:07;;;;;;;14.97;10.27;;;;;;;19.09;100.00;94359.47;5058380;28;20041;-65
2023/08/22 04:32:34;;;;;;;13.40;10.55;;;;;;;19.12;100.00;94353.00;5068673;28;20048;-64
2023/08/22 04:35:00;;;;;;;15.98;10.70;;;;;;;19.14;100.00;94361.66;5068146;28;20486;-65
2023/08/22 04:37:28;;;;;;;15.60;10.68;;;;;;;19.16;100.00;94356.41;5068671;28;20047;-64
2023/08/22 04:39:55;;;;;;;13.65;10.73;;;;;;;19.21;100.00;94366.13;5068635;28;20032;-65
2023/08/22 04:42:23;;;;;;;14.53;10.60;;;;;;;19.23;100.00;94368.47;5067683;28;20120;-65
2023/08/22 04:44:50;;;;;;;14.80;10.68;;;;;;;19.24;100.00;94361.69;5068505;28;20064;-65
2023/08/22 04:47:17;;;;;;;16.67;11.50;;;;;;;19.24;100.00;94367.25;5066709;28;20040;-64
2023/08/22 04:49:44;;;;;;;14.45;11.10;;;;;;;19.31;100.00;94373.28;5068476;28;20032;-65
2023/08/22 04:52:10;;;;;;;17.45;11.00;;;;;;;19.35;100.00;94362.00;5068006;28;20040;-65
2023/08/22 04:54:37;;;;;;;16.20;12.47;;;;;;;19.35;100.00;94368.31;5067913;28;20056;-65
2023/08/22 04:57:04;;;;;;;16.77;12.30;;;;;;;19.41;100.00;94367.72;5066618;28;20536;-65
2023/08/22 04:59:30;;;;;;;16.50;11.65;;;;;;;19.46;100.00;94367.13;5052817;28;20477;-65
2023/08/22 05:01:57;;;;;;;20.20;11.23;;;;;;;19.32;100.00;94376.84;5056410;28;20358;-64
2023/08/22 05:04:24;;;;;;;20.20;11.20;;;;;;;19.28;100.00;94367.88;5068146;28;20036;-65
2023/08/22 05:06:51;;;;;;;15.93;10.30;;;;;;;19.46;100.00;94364.34;5068006;28;20142;-65
2023/08/22 05:09:17;;;;;;;16.25;10.32;;;;;;;19.49;100.00;94369.72;5067538;28;20055;-65
2023/08/22 05:11:44;;;;;;;16.60;10.55;;;;;;;19.52;100.00;94365.28;5068172;28;20059;-65
2023/08/22 05:14:11;;;;;;;14.77;9.50;;;;;;;19.64;100.00;94367.13;5067822;28;20040;-64
2023/08/22 05:16:38;;;;;;;15.13;10.30;;;;;;;19.71;100.00;94368.84;5071940;28;20042;-65
2023/08/22 05:19:05;;;;;;;12.93;9.97;;;;;;;19.71;100.00;94366.06;5038994;28;20041;-65
2023/08/22 05:21:32;;;;;;;14.82;10.43;;;;;;;19.67;100.00;94368.97;5052252;28;20490;-65
2023/08/22 05:23:59;;;;;;;12.45;10.10;;;;;;;19.63;100.00;94362.03;5051832;28;20041;-65
2023/08/22 05:26:26;;;;;;;15.30;11.52;;;;;;;19.51;100.00;94366.50;5065331;28;20404;-64
2023/08/22 05:28:53;;;;;;;15.13;10.82;;;;;;;19.66;100.00;94375.78;5072087;28;20040;-65
2023/08/22 05:31:23;;;;;;;16.17;11.60;;;;;;;19.74;100.00;94365.16;5071487;28;20036;-65
2023/08/22 05:33:51;;;;;;;15.05;10.68;;;;;;;19.89;100.00;94376.44;5058476;28;20044;-65
2023/08/22 05:36:18;;;;;;;15.25;10.45;;;;;;;19.95;100.00;94375.34;5071590;28;20628;-65
2023/08/22 05:38:44;;;;;;;14.07;11.15;;;;;;;19.98;100.00;94381.22;5067578;28;20508;-65
2023/08/22 05:41:11;;;;;;;17.63;11.57;;;;;;;19.98;100.00;94375.63;5050282;28;20045;-65
2023/08/22 05:43:38;;;;;;;16.83;12.57;;;;;;;19.87;100.00;94379.69;5051579;28;20053;-65
2023/08/22 05:46:05;;;;;;;15.48;12.13;;;;;;;20.11;100.00;94373.47;5060453;28;20049;-64
2023/08/22 05:48:31;;;;;;;18.05;12.73;;;;;;;20.19;100.00;94385.06;5071458;28;20044;-65
2023/08/22 05:50:58;;;;;;;16.52;12.25;;;;;;;20.30;100.00;94388.13;5070121;28;20051;-64
2023/08/22 05:53:25;;;;;;;18.63;12.80;;;;;;;20.48;100.00;94385.31;5057773;28;20052;-65
2023/08/22 05:55:52;;;;;;;16.77;12.20;;;;;;;20.62;100.00;94388.69;5071777;28;20049;-65
2023/08/22 05:58:19;;;;;;;16.25;12.15;;;;;;;20.80;100.00;94385.06;5071255;28;20059;-64
2023/08/22 06:00:46;;;;;;;18.05;12.32;;;;;;;20.86;100.00;94381.16;5066136;28;20489;-65
2023/08/22 06:03:13;;;;;;;17.95;12.73;;;;;;;20.83;100.00;94379.34;5052236;28;20464;-64
2023/08/22 06:05:40;;;;;;;16.92;12.40;;;;;;;21.02;100.00;94382.81;5067551;28;20048;-65
2023/08/22 06:08:07;;;;;;;16.23;12.30;;;;;;;20.95;100.00;94385.94;5070630;28;20425;-65
2023/08/22 06:10:33;;;;;;;16.73;12.20;;;;;;;20.98;100.00;94392.59;5071216;28;20151;-65
2023/08/22 06:13:00;;;;;;;18.30;12.93;;;;;;;20.78;100.00;94391.13;5070812;28;20078;-65
2023/08/22 06:15:27;;;;;;;17.85;12.65;;;;;;;20.68;100.00;94393.16;5071202;28;20041;-64
2023/08/22 06:17:54;;;;;;;18.45;12.68;;;;;;;20.73;100.00;94392.53;5070007;28;20389;-64
2023/08/22 06:20:20;;;;;;;17.17;12.83;;;;;;;20.80;100.00;94394.22;5070248;28;20045;-64
2023/08/22 06:22:47;;;;;;;16.92;12.60;;;;;;;21.07;100.00;94384.19;5057693;28;20044;-64
2023/08/22 06:25:14;;;;;;;15.40;12.38;;;;;;;21.78;100.00;94379.88;5070253;28;20094;-64
2023/08/22 06:27:41;;;;;;;16.48;12.80;;;;;;;23.49;100.00;94371.03;5071143;28;20480;-64
2023/08/22 06:30:08;;;;;;;17.20;11.70;;;;;;;26.81;100.00;94371.81;5069262;28;20048;-64
2023/08/22 06:32:35;;;;;;;15.87;10.87;;;;;;;28.16;100.00;94370.78;5053681;28;20040;-65
2023/08/22 06:35:03;;;;;;;14.55;10.90;;;;;;;29.54;96.52;94362.28;5061640;28;20523;-65
2023/08/22 06:37:30;;;;;;;15.18;11.50;;;;;;;29.20;94.96;94369.06;5071122;28;20045;-65
2023/08/22 06:39:57;;;;;;;14.07;11.40;;;;;;;29.02;99.40;94375.38;5070033;28;20036;-64
2023/08/22 06:42:24;;;;;;;13.77;10.50;;;;;;;31.04;89.43;94379.94;5058945;28;20045;-65
2023/08/22 06:44:51;;;;;;;14.83;11.30;;;;;;;30.32;87.39;94377.63;5054749;28;20045;-65
2023/08/22 06:47:19;;;;;;;14.57;11.10;;;;;;;32.35;80.16;94364.88;5070126;28;20041;-65
2023/08/22 06:49:46;;;;;;;15.32;9.90;;;;;;;32.48;79.47;94369.75;5070755;28;20127;-65
2023/08/22 06:52:14;;;;;;;13.25;10.13;;;;;;;34.01;72.17;94364.69;5070285;28;20043;-65
2023/08/22 06:54:40;;;;;;;11.18;9.05;;;;;;;33.81;70.03;94372.75;5069159;28;20477;-65
2023/08/22 06:57:07;;;;;;;11.03;9.30;;;;;;;34.12;67.71;94364.38;5069881;28;20212;-65
2023/08/22 06:59:34;;;;;;;10.55;8.57;;;;;;;35.09;63.47;94368.72;5070205;28;20067;-65
2023/08/22 07:02:01;;;;;;;12.05;8.88;;;;;;;35.14;62.86;94370.63;5064025;28;20033;-65
2023/08/22 07:04:30;;;;;;;11.00;8.77;;;;;;;35.24;61.29;94367.25;5068010;28;20116;-65
2023/08/22 07:06:57;;;;;;;12.00;8.95;;;;;;;35.03;62.31;94367.38;5069764;28;20147;-64
2023/08/22 07:09:25;;;;;;;11.73;8.37;;;;;;;35.40;62.11;94360.22;5069842;28;20405;-65
2023/08/22 07:11:51;;;;;;;11.80;8.00;;;;;;;35.74;58.94;94367.66;5070147;28;20040;-65
2023/08/22 07:14:18;;;;;;;10.93;8.32;;;;;;;35.14;61.36;94367.78;5069272;28;20465;-66
2023/08/22 07:16:45;;;;;;;9.90;8.65;;;;;;;34.59;64.14;94366.13;5069727;28;20048;-66
2023/08/22 07:19:12;;;;;;;9.27;8.00;;;;;;;35.79;60.77;94366.66;5069237;28;20053;-66
2023/08/22 07:21:46;;;;;;;10.23;8.23;;;;;;;37.27;54.07;94357.69;5069959;28;20106;-66
2023/08/22 07:24:14;;;;;;;10.23;7.85;;;;;;;38.28;49.52;94364.06;5068954;28;20033;-66
2023/08/22 07:26:41;;;;;;;10.73;8.35;;;;;;;38.03;50.68;94366.97;5069869;28;20079;-65
2023/08/22 07:29:08;;;;;;;10.35;8.30;;;;;;;36.08;56.35;94377.84;5067929;28;20060;-66
2023/08/22 07:31:35;;;;;;;10.60;8.00;;;;;;;36.66;56.22;94361.66;5060682;28;20052;-65
2023/08/22 07:34:01;;;;;;;9.83;8.17;;;;;;;38.45;49.29;94368.25;5049498;28;20045;-66
2023/08/22 07:36:28;;;;;;;9.68;7.60;;;;;;;37.54;50.79;94369.31;5049721;28;20036;-66
2023/08/22 07:38:56;;;;;;;10.82;8.45;;;;;;;36.13;53.37;94376.88;5049211;28;20041;-66
2023/08/22 07:41:23;;;;;;;9.40;8.18;;;;;;;37.96;48.68;94371.44;5043697;28;20621;-66
2023/08/22 07:43:49;;;;;;;12.35;8.23;;;;;;;35.63;54.18;94377.31;5038768;28;20047;-66
2023/08/22 07:46:16;;;;;;;9.17;8.17;;;;;;;37.94;50.08;94374.13;5080721;28;20533;-66
2023/08/22 07:48:43;;;;;;;9.93;7.88;;;;;;;39.54;44.43;94377.69;5048272;28;20498;-66
2023/08/22 07:51:10;;;;;;;9.55;7.82;;;;;;;39.96;42.61;94370.88;5080913;28;20059;-66
2023/08/22 07:53:37;;;;;;;14.75;8.32;;;;;;;38.34;45.25;94375.28;5049435;28;20044;-66
2023/08/22 07:56:04;;;;;;;11.52;8.55;;;;;;;36.70;49.24;94375.56;5048872;28;20041;-66
2023/08/22 07:58:31;;;;;;;9.30;7.60;;;;;;;40.50;41.70;94376.38;5049770;28;20041;-66
2023/08/22 08:00:58;;;;;;;11.05;8.18;;;;;;;40.38;39.70;94378.34;5045133;28;20050;-66
2023/08/22 08:03:25;;;;;;;11.57;8.02;;;;;;;38.63;44.52;94371.88;5039151;28;20047;-66
2023/08/22 08:05:52;;;;;;;10.70;7.57;;;;;;;35.94;53.69;94374.44;5063793;28;20055;-65
2023/08/22 08:08:19;;;;;;;11.68;7.60;;;;;;;38.28;47.28;94378.38;5048928;28;20049;-66
2023/08/22 08:10:46;;;;;;;9.60;6.90;;;;;;;40.03;42.13;94375.72;5046544;28;20067;-65
2023/08/22 08:13:13;;;;;;;12.55;8.15;;;;;;;33.50;59.87;94385.19;5054944;28;20037;-66
2023/08/22 08:15:41;;;;;;;9.75;8.38;;;;;;;36.49;52.01;94379.44;5048610;28;20053;-66
2023/08/22 08:18:10;;;;;;;9.45;7.60;;;;;;;40.26;42.56;94371.66;5048245;28;20037;-66
2023/08/22 08:20:37;;;;;;;10.55;7.85;;;;;;;42.40;38.14;94370.22;5042291;28;20063;-65
2023/08/22 08:23:04;;;;;;;11.77;6.90;;;;;;;41.34;38.39;94370.22;5035425;28;20425;-66
2023/08/22 08:25:30;;;;;;;9.93;6.93;;;;;;;40.95;39.00;94369.53;5035338;28;20053;-66
2023/08/22 08:27:58;;;;;;;9.48;7.45;;;;;;;40.24;39.23;94368.63;5033753;28;20098;-65
2023/08/22 08:30:26;;;;;;;8.73;7.50;;;;;;;42.41;36.79;94360.22;5036158;28;20111;-66
2023/08/22 08:32:53;;;;;;;10.52;7.40;;;;;;;40.42;38.09;94377.91;5027805;28;20366;-66
2023/08/22 08:35:20;;;;;;;9.03;7.30;;;;;;;41.26;35.78;94378.28;5027277;28;20049;-66
2023/08/22 08:37:48;;;;;;;9.55;6.97;;;;;;;38.48;38.96;94367.09;5047261;28;20414;-66
2023/08/22 08:40:15;;;;;;;7.65;5.75;;;;;;;39.62;37.20;94363.94;5048252;28;20053;-66
2023/08/22 08:42:42;;;;;;;8.57;6.00;;;;;;;40.34;36.52;94366.53;5031729;28;20413;-66
2023/08/22 08:45:14;;;;;;;8.43;5.63;;;;;;;39.22;35.94;94364.38;5028458;28;20046;-65
2023/08/22 08:47:42;;;;;;;7.10;5.27;;;;;;;39.01;35.69;94362.78;5046782;28;20102;-66
2023/08/22 08:50:10;;;;;;;6.40;4.22;;;;;;;38.92;33.19;94360.59;5047885;28;20113;-66
2023/08/22 08:52:37;;;;;;;6.72;3.90;;;;;;;39.47;30.31;94364.22;5048320;28;20529;-66
2023/08/22 08:55:05;;;;;;;5.90;3.70;;;;;;;39.55;30.28;94371.34;5038295;28;20037;-66
2023/08/22 08:57:32;;;;;;;5.32;3.90;;;;;;;41.83;28.85;94361.34;5044853;28;20051;-65
2023/08/22 09:00:02;;;;;;;4.67;3.60;;;;;;;41.89;28.25;94364.66;5048043;28;20047;-66
2023/08/22 09:02:29;;;;;;;6.07;3.60;;;;;;;42.54;27.23;94356.75;5030657;28;20094;-66
2023/08/22 09:04:56;;;;;;;5.40;3.35;;;;;;;41.96;25.96;94372.34;5038423;28;20146;-66
2023/08/22 09:07:23;;;;;;;5.20;2.90;;;;;;;43.62;24.12;94354.25;5047484;28;20134;-66
2023/08/22 09:09:50;;;;;;;4.63;3.30;;;;;;;42.35;26.34;94368.47;5048016;28;20041;-66
2023/08/22 09:12:17;;;;;;;5.00;3.30;;;;;;;44.40;25.00;94366.91;5056874;28;20129;-66
2023/08/22 09:14:46;;;;;;;4.35;2.80;;;;;;;44.95;22.20;94361.41;5056868;28;20047;-66
2023/08/22 09:17:14;;;;;;;3.83;2.85;;;;;;;45.19;22.02;94358.38;5048869;28;20044;-66
2023/08/22 09:19:42;;;;;;;2.97;2.30;;;;;;;44.49;20.70;94360.22;5062615;28;20045;-66
2023/08/22 09:22:14;;;;;;;4.85;2.78;;;;;;;44.07;22.25;94357.06;5067412;28;20068;-66
2023/08/22 09:24:54;;;;;;;5.67;3.20;;;;;;;41.70;24.47;94354.00;5068069;28;20040;-66
2023/08/22 09:27:27;;;;;;;5.78;3.70;;;;;;;39.04;28.28;94355.84;5067953;28;21771;-66
2023/08/22 09:30:04;;;;;;;6.00;3.85;;;;;;;38.81;29.02;94353.28;5066876;28;20052;-66
2023/08/22 09:32:31;;;;;;;7.50;3.75;;;;;;;40.57;27.38;94354.59;5056477;28;20591;-66
2023/08/22 09:35:00;;;;;;;5.97;3.58;;;;;;;39.40;28.33;94353.56;5056085;28;20040;-65
2023/08/22 09:37:34;;;;;;;6.60;3.23;;;;;;;35.58;33.04;94361.91;5048149;28;20508;-66
2023/08/22 09:40:05;;;;;;;6.60;3.58;;;;;;;35.41;34.24;94367.44;5047455;28;20410;-66
2023/08/22 09:42:38;;;;;;;5.00;3.50;;;;;;;36.10;33.97;94358.03;5048684;28;20441;-65
2023/08/22 09:45:06;;;;;;;7.03;3.35;;;;;;;36.75;32.24;94349.63;5047213;28;20033;-66
2023/08/22 09:47:39;;;;;;;4.93;3.70;;;;;;;36.37;33.16;94359.09;5047911;28;20053;-65
2023/08/22 09:50:07;;;;;;;6.80;3.63;;;;;;;33.97;37.80;94358.59;5050845;28;20036;-65
2023/08/22 09:52:38;;;;;;;5.68;3.60;;;;;;;35.91;34.75;94367.03;5047942;28;20494;-65
2023/08/22 09:55:07;;;;;;;6.35;3.60;;;;;;;34.57;37.20;94360.22;5047286;28;20040;-65
2023/08/22 09:57:35;;;;;;;8.18;4.13;;;;;;;36.92;33.61;94354.66;5047720;28;20059;-65
2023/08/22 10:00:04;;;;;;;7.20;3.97;;;;;;;36.42;33.69;94356.59;5047365;28;20600;-65
2023/08/22 10:02:32;;;;;;;7.63;4.10;;;;;;;36.46;34.81;94346.28;5033792;28;20044;-65
2023/08/22 10:05:02;;;;;;;5.78;3.90;;;;;;;34.47;37.25;94347.84;5041194;28;20413;-65
2023/08/22 10:07:29;;;;;;;7.40;4.00;;;;;;;34.37;38.18;94343.97;5051659;28;20052;-65
2023/08/22 10:09:56;;;;;;;9.32;3.67;;;;;;;35.75;34.90;94340.59;5051371;28;20486;-65
2023/08/22 10:12:24;;;;;;;5.88;4.05;;;;;;;34.86;37.70;94348.72;5056747;28;20417;-65
2023/08/22 10:14:57;;;;;;;6.47;3.83;;;;;;;39.01;31.41;94334.09;5071544;28;20048;-65
2023/08/22 10:17:27;;;;;;;6.13;3.55;;;;;;;37.50;32.78;94336.72;5051531;28;20044;-65
2023/08/22 10:20:04;;;;;;;7.13;3.30;;;;;;;39.84;30.50;94330.44;5067058;28;20053;-65
2023/08/22 10:22:35;;;;;;;5.97;3.00;;;;;;;40.65;28.63;94328.50;5049966;28;20960;-65
2023/08/22 10:25:06;;;;;;;8.43;3.45;;;;;;;38.62;31.05;94324.50;5050758;28;20498;-65
2023/08/22 10:27:37;;;;;;;7.40;3.60;;;;;;;35.13;35.94;94323.44;5046629;28;20055;-65
2023/08/22 10:30:13;;;;;;;5.65;3.65;;;;;;;33.57;39.44;94325.50;5042611;28;20049;-65
2023/08/22 10:32:40;;;;;;;6.85;3.92;;;;;;;34.24;39.39;94321.34;5038002;28;20049;-65
2023/08/22 10:35:12;;;;;;;5.80;3.90;;;;;;;33.30;39.88;94321.31;5050171;28;20041;-65
2023/08/22 10:37:50;;;;;;;6.18;3.75;;;;;;;36.76;37.32;94321.78;5050902;28;20053;-65
2023/08/22 10:40:27;;;;;;;5.27;3.70;;;;;;;40.43;30.72;94319.78;5050950;28;20061;-65
2023/08/22 10:43:06;;;;;;;7.90;3.70;;;;;;;41.75;28.71;94315.44;5045672;28;20053;-65
2023/08/22 10:45:39;;;;;;;10.10;3.90;;;;;;;40.68;28.77;94319.44;5049846;28;20855;-66
2023/08/22 10:48:12;;;;;;;7.88;4.30;;;;;;;34.95;37.05;94325.34;5047552;28;20063;-65
2023/08/22 10:50:42;;;;;;;5.00;3.80;;;;;;;35.70;35.40;94321.56;5053293;28;20049;-65
2023/08/22 10:53:15;;;;;;;4.87;3.70;;;;;;;39.31;30.70;94309.13;5047264;28;20049;-66
2023/08/22 10:55:42;;;;;;;6.15;3.60;;;;;;;41.65;27.96;94311.84;5050516;28;20049;-65
2023/08/22 10:58:36;;;;;;;5.53;3.90;;;;;;;37.46;33.00;94317.06;5046440;28;20052;-65
2023/08/22 11:01:13;;;;;;;7.47;4.18;;;;;;;37.34;34.13;94308.22;5061485;28;20059;-65
2023/08/22 11:03:42;;;;;;;7.53;4.10;;;;;;;36.36;35.82;94305.38;5030862;28;20386;-65
2023/08/22 11:06:17;;;;;;;6.53;4.07;;;;;;;39.03;33.35;94310.53;5049435;28;20053;-65
2023/08/22 11:08:44;;;;;;;5.75;4.00;;;;;;;39.09;31.88;94311.00;5050410;28;20114;-65
2023/08/22 11:11:13;;;;;;;6.78;4.40;;;;;;;39.03;31.92;94316.28;5043860;28;20544;-65
2023/08/22 11:13:42;;;;;;;6.03;4.10;;;;;;;39.30;31.44;94316.22;5044129;28;20440;-65
2023/08/22 11:16:13;;;;;;;6.97;4.57;;;;;;;37.90;33.29;94307.88;5054922;28;20108;-64
2023/08/22 11:18:41;;;;;;;5.93;4.20;;;;;;;36.81;34.68;94303.63;5070176;28;20074;-65
2023/08/22 11:21:08;;;;;;;7.25;4.70;;;;;;;35.48;36.84;94308.84;5069332;28;20059;-66
2023/08/22 11:23:36;;;;;;;6.93;4.80;;;;;;;34.05;41.27;94304.50;5070019;28;20055;-65